Impacts TAF Board INFO
FOR SITUATIONAL AWARENESS. NOT TO BE USED FOR FLIGHT PLANNING PURPOSES.
IDs:

KSTL - St Louis/Lambert Int, MO, US

Issued at 1739 UTC 18 Feb 2018
Updated at 1811 UTC 18 Feb 2018
Potential Impact None Slight Moderate High
Time1751Z 18/19Z 18/20Z 18/21Z 18/22Z 18/23Z 19/00Z 19/01Z 19/02Z 19/03Z 19/04Z 19/05Z 19/06Z 19/07Z>>
Type OBS PRVL PRVL PRVL PRVL PRVL PRVL PRVL PRVL PRVL PRVL PRVL PRVL PRVL
VIS 10 >6 >6 >6 >6 >6 >6 >6 >6 >6 >6 >6 >6 6
CIG 250 250 250 250 250 250 250 250 250 70 70 70 70 25
Cover BKN BKN BKN BKN BKN BKN BKN BKN BKN BKN BKN BKN BKN OVC
FltCat VFR VFR VFR VFR VFR VFR VFR VFR VFR VFR VFR VFR VFR MVFR
WX -- -- -- -- -- -- -- -- -- -- -- -- -- -RA VCTS
WDir 150 150 150 150 150 150 150 150 150 170 170 170 170 180
WSpd 17 15 15 15 15 15 15 15 15 13 13 13 13 13
WGst 23 -- -- -- -- -- -- -- -- -- -- -- -- --

Raw TAF
KSTL 181739Z 1818/1924 15015KT P6SM BKN250
  FM190300 17013KT P6SM BKN070 WS017/20045KT
  FM190700 18013KT 6SM -RA VCTS OVC025CB WS017/21045KT
  FM191500 19015G25KT 6SM -SHRA OVC025
  FM191800 19015G25KT P6SM OVC035


Raw METAR
KSTL 181751Z 15017G23KT 10SM BKN250 09/M02 A3017 RMK AO2 SLP226 T00891017 10094 20006 58024
KSTL 181651Z 14011KT 10SM BKN250 08/M01 A3022 RMK AO2 SLP240 T00831011
KSTL 181551Z 14017KT 10SM BKN250 07/M01 A3024 RMK AO2 SLP247 T00671011

METAR Board
Radar Display
Forecast Discussion

FOR SITUATIONAL AWARENESS. NOT TO BE USED FOR FLIGHT PLANNING PURPOSES.